Airfield :
LOGIN :

Register | Disclaimer

   EN    FR    IT 

 










Legend :    VFR   Marginal VFR   IFR   Intensive IFR   Very Intensive IFR
Visi :
Ceiling :
>= 8 km
>= 3000ft
5 to 8 km
1000 to 3000 ft
1500m to 5 km
500 to 1000 ft
800 to 1500m
200 to 500 ft
< 800m
< 200 ft
Symbols :   Thunderstorms  Fog  Heavy snow  Heavy precipitations  Wind > 20 kt
SIGMETs :     Misc.  Thunderstorms  Icing  Turbulence  Mountain Waves  Volcanic Ashes







- Airport Elevation : 1079 ft


ETIK - Illesheim Air Base

CURRENT METAR :
  • 220256Z AUTO 24009KT 9999 SCT200 10/07 M RMK AO2 SLPNO T01010073 PWINO $

EXPIRED METARs :
  • 220156Z AUTO 25011KT 9999 OVC220 11/08 M RMK AO2 SLPNO T01090081 PWINO $
  • 220056Z AUTO 25008KT 9999 BKN210 11/08 M RMK AO2 SLPNO T01080078 PWINO $

TAF AMD TAF ETIK
Valid from the 21 at 16:00 until the 22 at 19:00 UTC


211618Z 2116/2219 28015G25KT 8000 -SHRA BKN040 QNH2986INS
TEMPO 2116/2118 28015G35KT
BECMG 2119/2120 26012KT 9999 NSW SCT030 QNH3000INS
BECMG 2208/2209 25012KT 9999 FEW060 QNH3015INS TX28/2212Z TN09/2203Z LAST NO AMDS AFT 2116 NEXT 2404
No reported NOTAMs for that airfield.



MET'MAP, your aeronautical weather chart ! - Copyright ORBIFLY December 2007 - Disclaimer

ORBIFLY MET'MAP TEAM :

Programming & Development : Alexandra Zaïnal
Concept & Development : Baudouin d'Aumeries
Co-Development & Prog : Marc-Olivier Méhu
Technical & hardware support : Manuel Goepfert

Contact : metmap@orbifly.com




SOURCES & CREDITS :

   NOAA